createdAt,value
2019-05-11T00:01:51.583Z,7.47
2019-05-11T00:04:18.392Z,7.63
2019-05-11T00:06:45.370Z,8.27
2019-05-11T00:09:12.237Z,6.43
2019-05-11T00:11:43.729Z,7.73
2019-05-11T00:14:10.997Z,6.77
2019-05-11T00:16:38.707Z,6.43
2019-05-11T00:19:06.038Z,6.73
2019-05-11T00:21:33.404Z,7.70
2019-05-11T00:24:02.437Z,7.00
2019-05-11T00:26:30.297Z,6.60
2019-05-11T00:28:58.324Z,7.10
2019-05-11T00:31:25.531Z,7.50
2019-05-11T00:33:53.991Z,7.27
2019-05-11T00:36:21.511Z,6.83
2019-05-11T00:38:48.845Z,6.70
2019-05-11T00:41:15.928Z,7.00
2019-05-11T00:43:42.937Z,6.57
2019-05-11T00:46:21.539Z,6.50
2019-05-11T00:48:48.958Z,7.33
2019-05-11T00:51:20.254Z,7.43
2019-05-11T00:53:47.397Z,6.87
2019-05-11T00:56:14.614Z,7.23
2019-05-11T00:58:41.846Z,6.93
2019-05-11T01:01:08.731Z,6.33
2019-05-11T01:03:35.833Z,6.97
2019-05-11T01:06:02.741Z,6.17
2019-05-11T01:08:29.376Z,6.70
2019-05-11T01:10:56.300Z,7.23
2019-05-11T01:13:23.766Z,6.80
2019-05-11T01:15:50.624Z,7.13
2019-05-11T01:18:17.444Z,6.00
2019-05-11T01:20:50.986Z,6.73
2019-05-11T01:23:18.605Z,7.40
2019-05-11T01:25:45.998Z,6.43
2019-05-11T01:28:12.988Z,6.20
2019-05-11T01:30:40.610Z,6.87
2019-05-11T01:33:08.018Z,6.73
2019-05-11T01:35:35.627Z,7.07
2019-05-11T01:38:03.139Z,7.13
2019-05-11T01:40:31.352Z,7.10
2019-05-11T01:42:59.286Z,7.00
2019-05-11T01:45:26.806Z,7.53
2019-05-11T01:47:54.196Z,6.90
2019-05-11T01:50:21.684Z,7.30
2019-05-11T01:52:48.655Z,7.40
2019-05-11T01:55:15.740Z,6.67
2019-05-11T01:57:48.474Z,7.00
2019-05-11T02:00:18.075Z,7.10
2019-05-11T02:02:45.705Z,7.20
2019-05-11T02:05:28.677Z,7.13
2019-05-11T02:07:57.573Z,7.83
2019-05-11T02:10:24.917Z,6.97
2019-05-11T02:12:52.067Z,6.83
2019-05-11T02:15:19.441Z,6.87
2019-05-11T02:17:46.795Z,6.93
2019-05-11T02:20:13.820Z,6.90
2019-05-11T02:22:40.729Z,7.93
2019-05-11T02:25:12.433Z,7.77
2019-05-11T02:27:39.583Z,7.03
2019-05-11T02:30:08.599Z,7.17
2019-05-11T02:32:35.689Z,7.73
2019-05-11T02:35:04.125Z,7.63
2019-05-11T02:37:33.624Z,7.53
2019-05-11T02:40:00.966Z,7.67
2019-05-11T02:42:28.587Z,8.97
2019-05-11T02:44:56.388Z,7.70
2019-05-11T02:47:24.350Z,7.43
2019-05-11T02:49:52.518Z,7.33
2019-05-11T02:52:21.218Z,8.13
2019-05-11T02:54:48.269Z,7.70
2019-05-11T02:57:15.291Z,8.53
2019-05-11T02:59:47.985Z,7.13
2019-05-11T03:02:15.687Z,7.13
2019-05-11T03:04:42.818Z,7.40
2019-05-11T03:07:10.086Z,8.77
2019-05-11T03:09:37.909Z,7.27
2019-05-11T03:12:05.309Z,8.40
2019-05-11T03:14:32.853Z,8.47
2019-05-11T03:17:19.897Z,7.57
2019-05-11T03:19:47.782Z,7.77
2019-05-11T03:22:17.279Z,8.50
2019-05-11T03:24:53.672Z,7.87
2019-05-11T03:27:21.072Z,8.23
2019-05-11T03:29:48.230Z,7.87
2019-05-11T03:32:15.365Z,8.47
2019-05-11T03:34:42.828Z,8.07
2019-05-11T03:37:11.086Z,7.73
2019-05-11T03:39:38.246Z,8.20
2019-05-11T03:42:14.470Z,7.97
2019-05-11T03:44:34.417Z,7.80
2019-05-11T03:47:03.117Z,8.90
2019-05-11T03:49:31.136Z,8.83
2019-05-11T03:51:58.197Z,8.73
2019-05-11T03:54:25.290Z,8.43
2019-05-11T03:56:59.149Z,8.87
2019-05-11T03:59:26.905Z,8.90
2019-05-11T04:01:55.186Z,8.43
2019-05-11T04:04:23.067Z,8.70
2019-05-11T04:06:51.134Z,7.93
2019-05-11T04:09:18.294Z,8.07
2019-05-11T04:11:45.820Z,8.73
2019-05-11T04:14:13.485Z,8.33
2019-05-11T04:16:41.480Z,8.77
2019-05-11T04:19:10.169Z,8.60
2019-05-11T04:21:37.942Z,8.70
2019-05-11T04:24:09.150Z,8.60
2019-05-11T04:26:38.176Z,9.30
2019-05-11T04:29:08.802Z,8.33
2019-05-11T04:31:37.238Z,8.43
2019-05-11T04:34:05.960Z,8.73
2019-05-11T04:36:33.374Z,8.77
2019-05-11T04:39:00.845Z,8.37
2019-05-11T04:41:28.731Z,7.93
2019-05-11T04:43:56.008Z,8.93
2019-05-11T04:46:28.602Z,8.93
2019-05-11T04:48:56.401Z,8.73
2019-05-11T04:51:24.948Z,8.93
2019-05-11T04:53:53.703Z,8.50
2019-05-11T04:56:20.744Z,7.80
2019-05-11T04:58:51.863Z,9.40
2019-05-11T05:01:32.799Z,9.07
2019-05-11T05:04:13.529Z,8.60
2019-05-11T05:06:30.379Z,8.70
2019-05-11T05:09:03.599Z,7.93
2019-05-11T05:11:30.565Z,8.50
2019-05-11T05:14:02.203Z,8.80
2019-05-11T05:16:31.542Z,7.37
2019-05-11T05:18:58.107Z,8.13
2019-05-11T05:21:25.391Z,7.80
2019-05-11T05:23:55.275Z,7.50
2019-05-11T05:26:24.923Z,8.27
2019-05-11T05:28:52.927Z,8.23
2019-05-11T05:31:20.054Z,8.27
2019-05-11T05:33:48.158Z,7.50
2019-05-11T05:36:36.230Z,8.00
2019-05-11T05:39:09.201Z,6.50
2019-05-11T05:41:38.815Z,7.93
2019-05-11T05:44:05.900Z,7.50
2019-05-11T05:46:32.838Z,7.70
2019-05-11T05:49:12.803Z,7.57
2019-05-11T05:51:52.771Z,6.77
2019-05-11T05:54:21.984Z,6.83
2019-05-11T05:56:50.186Z,6.53
2019-05-11T05:59:18.215Z,7.03
2019-05-11T06:01:45.252Z,7.97
2019-05-11T06:04:12.442Z,7.17
2019-05-11T06:06:39.572Z,7.10
2019-05-11T06:09:07.126Z,7.20
2019-05-11T06:11:34.585Z,7.10
2019-05-11T06:14:10.004Z,6.47
2019-05-11T06:16:37.832Z,7.03
2019-05-11T06:19:05.791Z,6.97
2019-05-11T06:21:33.043Z,6.73
2019-05-11T06:24:06.116Z,6.93
2019-05-11T06:26:30.368Z,6.87
2019-05-11T06:28:58.216Z,6.83
2019-05-11T06:31:25.748Z,6.13
2019-05-11T06:33:52.703Z,7.00
2019-05-11T06:36:20.260Z,6.77
2019-05-11T06:38:51.392Z,6.90
2019-05-11T06:41:19.128Z,6.83
2019-05-11T06:44:01.436Z,7.47
2019-05-11T06:46:18.453Z,6.50
2019-05-11T06:48:50.983Z,8.20
2019-05-11T06:51:18.512Z,7.50
2019-05-11T06:53:49.277Z,7.07
2019-05-11T06:56:16.901Z,7.23
2019-05-11T06:58:54.286Z,7.77
2019-05-11T07:01:23.691Z,7.47
2019-05-11T07:03:51.582Z,7.40
2019-05-11T07:06:19.123Z,7.83
2019-05-11T07:08:46.244Z,6.93
2019-05-11T07:11:13.264Z,7.77
2019-05-11T07:13:40.431Z,7.63
2019-05-11T07:16:11.464Z,7.60
2019-05-11T07:18:41.967Z,7.80
2019-05-11T07:21:12.021Z,8.60
2019-05-11T07:23:39.252Z,6.87
2019-05-11T07:26:06.795Z,8.03
2019-05-11T07:28:44.230Z,7.70
2019-05-11T07:31:28.509Z,8.87
2019-05-11T07:34:15.588Z,8.17
2019-05-11T07:37:05.441Z,7.97
2019-05-11T07:39:48.976Z,8.57
2019-05-11T07:42:20.044Z,7.77
2019-05-11T07:45:08.915Z,8.63
2019-05-11T07:47:38.094Z,7.83
2019-05-11T07:50:08.248Z,9.63
2019-05-11T07:52:37.818Z,8.13
2019-05-11T07:55:08.476Z,8.23
2019-05-11T07:57:51.211Z,9.67
2019-05-11T08:00:27.855Z,8.60
2019-05-11T08:03:00.744Z,7.90
2019-05-11T08:05:28.668Z,8.63
2019-05-11T08:08:11.225Z,8.63
2019-05-11T08:10:40.406Z,8.67
2019-05-11T08:13:09.276Z,8.83
2019-05-11T08:15:38.258Z,9.23
2019-05-11T08:18:08.468Z,9.40
2019-05-11T08:20:38.551Z,9.70
2019-05-11T08:23:06.368Z,9.83
2019-05-11T08:25:44.921Z,9.17
2019-05-11T08:28:18.420Z,9.73
2019-05-11T08:30:48.586Z,9.43
2019-05-11T08:33:20.131Z,8.77
2019-05-11T08:35:49.090Z,9.77
2019-05-11T08:38:18.029Z,8.80
2019-05-11T08:41:08.353Z,7.83
2019-05-11T08:43:48.029Z,9.17
2019-05-11T08:46:18.350Z,7.90
2019-05-11T08:48:47.865Z,8.60
2019-05-11T08:51:18.621Z,7.83
2019-05-11T08:53:49.225Z,8.43
2019-05-11T08:56:18.930Z,8.30
2019-05-11T08:58:49.019Z,8.17
2019-05-11T09:01:18.370Z,8.33
2019-05-11T09:03:47.806Z,9.93
2019-05-11T09:06:33.269Z,7.83
2019-05-11T09:09:05.483Z,8.63
2019-05-11T09:11:43.759Z,8.13
2019-05-11T09:14:13.924Z,7.93
2019-05-11T09:16:45.871Z,8.50
2019-05-11T09:19:13.309Z,7.33
2019-05-11T09:21:45.160Z,7.93
2019-05-11T09:24:19.152Z,7.53
2019-05-11T09:26:59.229Z,7.40
2019-05-11T09:29:28.127Z,7.70
2019-05-11T09:31:58.200Z,7.80
2019-05-11T09:34:28.785Z,7.03
2019-05-11T09:36:59.046Z,7.40
2019-05-11T09:39:32.796Z,7.77
2019-05-11T09:42:00.642Z,6.80
2019-05-11T09:44:28.824Z,7.00
2019-05-11T09:47:00.038Z,7.40
2019-05-11T09:49:43.247Z,6.30
2019-05-11T09:51:58.943Z,6.67
2019-05-11T09:54:32.832Z,7.10
2019-05-11T09:57:01.744Z,6.50
2019-05-11T09:59:29.452Z,6.87
2019-05-11T10:01:59.091Z,6.77
2019-05-11T10:04:28.803Z,7.17
2019-05-11T10:07:00.172Z,6.23
2019-05-11T10:09:40.422Z,6.27
2019-05-11T10:12:13.373Z,7.07
2019-05-11T10:14:41.515Z,7.27
2019-05-11T10:17:08.862Z,6.70
2019-05-11T10:19:39.462Z,6.80
2019-05-11T10:22:09.207Z,7.10
2019-05-11T10:24:38.511Z,6.20
2019-05-11T10:27:08.268Z,7.03
2019-05-11T10:29:38.261Z,6.40
2019-05-11T10:32:07.938Z,6.70
2019-05-11T10:34:38.657Z,6.73
2019-05-11T10:37:25.314Z,7.33
2019-05-11T10:39:57.806Z,6.70
2019-05-11T10:42:27.887Z,5.70
2019-05-11T10:44:55.157Z,6.63
2019-05-11T10:47:23.247Z,6.00
2019-05-11T10:49:50.707Z,5.93
2019-05-11T10:52:18.785Z,5.60
2019-05-11T10:54:47.768Z,5.33
2019-05-11T10:57:15.679Z,5.83
2019-05-11T10:59:43.153Z,4.70
2019-05-11T11:02:10.269Z,5.40
2019-05-11T11:04:38.758Z,4.90
2019-05-11T11:07:07.727Z,5.17
2019-05-11T11:09:38.453Z,4.50
2019-05-11T11:12:18.914Z,4.43
2019-05-11T11:15:02.101Z,4.53
2019-05-11T11:17:31.577Z,4.10
2019-05-11T11:19:58.957Z,4.00
2019-05-11T11:22:37.021Z,4.60
2019-05-11T11:24:58.719Z,3.90
2019-05-11T11:27:25.086Z,3.77
2019-05-11T11:29:53.443Z,3.67
2019-05-11T11:32:27.888Z,3.83
2019-05-11T11:34:57.916Z,3.57
2019-05-11T11:37:27.929Z,3.97
2019-05-11T11:39:57.972Z,2.93
2019-05-11T11:42:50.756Z,3.37
2019-05-11T11:45:22.599Z,3.00
2019-05-11T11:47:49.637Z,3.10
2019-05-11T11:50:17.783Z,3.07
2019-05-11T11:52:45.176Z,3.23
2019-05-11T11:55:14.811Z,3.00
2019-05-11T11:57:42.097Z,3.23
2019-05-11T12:00:09.901Z,3.08
2019-05-11T12:02:38.766Z,3.10
2019-05-11T12:05:08.602Z,2.62
2019-05-11T12:07:35.148Z,2.52
2019-05-11T12:10:02.252Z,2.40
2019-05-11T12:12:29.909Z,2.67
2019-05-11T12:14:58.473Z,2.70
2019-05-11T12:17:25.595Z,2.70
2019-05-11T12:19:53.530Z,2.70
2019-05-11T12:22:20.650Z,2.83
2019-05-11T12:24:50.573Z,2.33
2019-05-11T12:27:18.480Z,2.40
2019-05-11T12:32:41.863Z,2.27
2019-05-11T12:35:12.128Z,2.07
2019-05-11T12:37:39.888Z,2.17
2019-05-11T12:40:08.614Z,2.10
2019-05-11T12:42:38.085Z,2.67
2019-05-11T12:45:07.525Z,2.30
2019-05-11T12:47:35.151Z,2.02
2019-05-11T12:50:04.231Z,1.97
2019-05-11T12:52:32.275Z,2.02
2019-05-11T12:55:01.669Z,1.75
2019-05-11T12:57:29.136Z,1.75
2019-05-11T12:59:58.211Z,2.03
2019-05-11T13:02:30.445Z,1.77
2019-05-11T13:04:59.855Z,2.37
2019-05-11T13:07:28.879Z,1.67
2019-05-11T13:09:57.986Z,1.50
2019-05-11T13:12:29.902Z,1.60
2019-05-11T13:14:58.816Z,1.53
2019-05-11T13:17:34.934Z,1.40
2019-05-11T13:19:58.775Z,1.50
2019-05-11T13:22:26.173Z,1.40
2019-05-11T13:24:53.237Z,1.30
2019-05-11T13:27:20.299Z,1.50
2019-05-11T13:29:48.566Z,1.60
2019-05-11T13:32:18.536Z,1.60
2019-05-11T13:34:48.056Z,1.40
2019-05-11T13:37:18.579Z,1.60
2019-05-11T13:39:48.407Z,1.90
2019-05-11T13:45:08.505Z,1.60
2019-05-11T13:47:51.275Z,1.60
2019-05-11T13:50:07.850Z,1.63
2019-05-11T13:52:35.742Z,1.33
2019-05-11T13:55:02.780Z,1.80
2019-05-11T13:57:30.504Z,1.60
2019-05-11T13:59:58.236Z,1.80
2019-05-11T14:02:25.530Z,1.33
2019-05-11T14:04:52.726Z,1.80
2019-05-11T14:07:24.261Z,1.50
2019-05-11T14:09:51.868Z,1.60
2019-05-11T14:12:20.220Z,1.50
2019-05-11T14:14:51.768Z,1.80
2019-05-11T14:20:11.482Z,1.50
2019-05-11T14:22:41.315Z,1.70
2019-05-11T14:25:11.591Z,1.70
2019-05-11T14:27:42.084Z,1.70
2019-05-11T14:30:32.891Z,2.00
2019-05-11T14:33:15.225Z,2.00
2019-05-11T14:35:44.312Z,1.73
2019-05-11T14:38:18.659Z,1.70
2019-05-11T14:40:48.085Z,1.73
2019-05-11T14:43:15.493Z,1.83
2019-05-11T14:45:43.765Z,2.20
2019-05-11T14:48:23.119Z,1.87
2019-05-11T14:50:42.010Z,1.90
2019-05-11T14:53:11.065Z,2.00
2019-05-11T14:55:42.155Z,2.07
2019-05-11T14:58:09.412Z,1.93
2019-05-11T15:00:38.976Z,2.07
2019-05-11T15:03:07.890Z,2.20
2019-05-11T15:05:37.472Z,2.22
2019-05-11T15:08:04.265Z,1.97
2019-05-11T15:10:31.373Z,2.00
2019-05-11T15:12:59.239Z,2.03
2019-05-11T15:15:29.877Z,2.03
2019-05-11T15:18:02.575Z,1.83
2019-05-11T15:20:29.861Z,1.90
2019-05-11T15:23:11.852Z,1.80
2019-05-11T15:25:40.611Z,1.40
2019-05-11T15:28:08.915Z,1.70
2019-05-11T15:30:38.049Z,1.53
2019-05-11T15:33:07.867Z,1.53
2019-05-11T15:35:37.538Z,1.87
2019-05-11T15:38:05.562Z,1.43
2019-05-11T15:40:38.117Z,1.50
2019-05-11T15:43:08.532Z,1.67
2019-05-11T15:45:39.044Z,1.40
2019-05-11T15:48:09.965Z,1.33
2019-05-11T15:50:40.303Z,1.70
2019-05-11T15:53:08.771Z,1.60
2019-05-11T15:55:39.372Z,1.83
2019-05-11T15:58:15.374Z,1.47
2019-05-11T16:00:43.015Z,2.00
2019-05-11T16:03:10.288Z,1.83
2019-05-11T16:05:38.342Z,1.43
2019-05-11T16:08:11.269Z,1.93
2019-05-11T16:10:38.557Z,1.70
2019-05-11T16:13:09.217Z,1.70
2019-05-11T16:15:38.384Z,1.70
2019-05-11T16:18:08.128Z,1.43
2019-05-11T16:20:35.943Z,1.43
2019-05-11T16:23:04.156Z,1.60
2019-05-11T16:25:31.836Z,1.80
2019-05-11T16:27:59.183Z,1.47
2019-05-11T16:30:28.834Z,1.83
2019-05-11T16:32:57.960Z,1.73
2019-05-11T16:35:28.829Z,1.70
2019-05-11T16:37:59.258Z,1.50
2019-05-11T16:40:26.085Z,1.80
2019-05-11T16:42:56.182Z,1.40
2019-05-11T16:45:24.017Z,1.60
2019-05-11T16:47:51.793Z,1.67
2019-05-11T16:50:19.770Z,1.67
2019-05-11T16:55:38.731Z,1.50
2019-05-11T16:58:11.585Z,1.60
2019-05-11T17:00:39.252Z,1.40
2019-05-11T17:03:09.931Z,1.60
2019-05-11T17:05:38.265Z,1.37
2019-05-11T17:08:07.990Z,1.47
2019-05-11T17:10:34.861Z,1.40
2019-05-11T17:13:03.137Z,1.50
2019-05-11T17:15:31.591Z,1.80
2019-05-11T17:18:02.357Z,1.20
2019-05-11T17:20:30.547Z,1.30
2019-05-11T17:22:58.041Z,1.60
2019-05-11T17:25:28.631Z,1.40
2019-05-11T17:28:06.772Z,1.23
2019-05-11T17:30:35.811Z,1.40
2019-05-11T17:33:13.555Z,1.40
2019-05-11T17:35:42.468Z,1.07
2019-05-11T17:38:09.988Z,1.40
2019-05-11T17:40:37.908Z,1.40
2019-05-11T17:43:09.117Z,1.00
2019-05-11T17:45:37.578Z,1.30
2019-05-11T17:48:04.761Z,1.33
2019-05-11T17:50:31.728Z,1.30
2019-05-11T17:53:03.679Z,1.27
2019-05-11T17:55:33.678Z,1.10
2019-05-11T17:58:05.010Z,1.50
2019-05-11T18:00:34.082Z,1.13
2019-05-11T18:03:02.419Z,1.10
2019-05-11T18:05:31.309Z,1.07
2019-05-11T18:08:05.217Z,1.40
2019-05-11T18:10:34.712Z,1.20
2019-05-11T18:13:04.243Z,1.00
2019-05-11T18:15:31.792Z,1.40
2019-05-11T18:17:59.434Z,1.30
2019-05-11T18:20:32.494Z,1.20
2019-05-11T18:22:59.884Z,1.27
2019-05-11T18:25:28.729Z,1.40
2019-05-11T18:28:00.563Z,1.30
2019-05-11T18:30:29.283Z,1.30
2019-05-11T18:32:59.417Z,1.10
2019-05-11T18:35:28.612Z,1.50
2019-05-11T18:37:59.599Z,1.30
2019-05-11T18:40:28.680Z,1.30
2019-05-11T18:42:57.887Z,1.47
2019-05-11T18:45:25.160Z,1.40
2019-05-11T18:47:56.724Z,1.73
2019-05-11T18:50:30.489Z,1.23
2019-05-11T18:52:53.678Z,1.50
2019-05-11T18:55:21.503Z,1.40
2019-05-11T18:57:58.088Z,1.53
2019-05-11T19:00:24.605Z,1.50
2019-05-11T19:02:53.289Z,1.50
2019-05-11T19:05:24.382Z,1.80
2019-05-11T19:07:52.872Z,1.60
2019-05-11T19:10:20.799Z,1.70
2019-05-11T19:12:48.747Z,1.47
2019-05-11T19:15:18.445Z,1.40
2019-05-11T19:17:59.483Z,1.43
2019-05-11T19:20:44.651Z,1.63
2019-05-11T19:23:00.357Z,1.50
2019-05-11T19:25:37.435Z,1.77
2019-05-11T19:30:55.662Z,1.30
2019-05-11T19:33:23.704Z,1.50
2019-05-11T19:35:51.776Z,1.27
2019-05-11T19:38:19.984Z,1.30
2019-05-11T19:40:49.632Z,1.23
2019-05-11T19:43:18.579Z,1.17
2019-05-11T19:45:48.727Z,1.97
2019-05-11T19:48:16.102Z,1.67
2019-05-11T19:50:58.951Z,1.20
2019-05-11T19:53:13.556Z,1.40
2019-05-11T19:55:41.048Z,1.30
2019-05-11T19:58:08.119Z,1.60
2019-05-11T20:00:37.883Z,1.20
2019-05-11T20:03:08.847Z,1.40
2019-05-11T20:05:37.878Z,1.50
2019-05-11T20:08:05.142Z,1.20
2019-05-11T20:10:55.663Z,1.03
2019-05-11T20:13:28.216Z,1.40
2019-05-11T20:18:45.281Z,1.33
2019-05-11T20:21:18.667Z,1.40
2019-05-11T20:23:41.658Z,1.50
2019-05-11T20:26:09.688Z,1.30
2019-05-11T20:28:37.839Z,0.83
2019-05-11T20:31:08.031Z,1.30
2019-05-11T20:33:38.532Z,1.10
2019-05-11T20:36:05.662Z,1.30
2019-05-11T20:38:32.907Z,1.13
2019-05-11T20:41:00.266Z,1.10
2019-05-11T20:43:28.092Z,1.30
2019-05-11T20:45:56.262Z,1.23
2019-05-11T20:48:27.525Z,1.40
2019-05-11T20:50:57.565Z,1.13
2019-05-11T20:53:24.320Z,1.23
2019-05-11T20:55:58.296Z,1.47
2019-05-11T20:58:25.689Z,1.20
2019-05-11T21:00:53.005Z,1.20
2019-05-11T21:03:20.012Z,1.10
2019-05-11T21:05:48.218Z,1.63
2019-05-11T21:08:17.559Z,1.23
2019-05-11T21:10:44.727Z,1.30
2019-05-11T21:13:12.284Z,1.30
2019-05-11T21:15:39.552Z,1.10
2019-05-11T21:18:07.957Z,1.30
2019-05-11T21:20:38.291Z,1.30
2019-05-11T21:23:09.165Z,1.30
2019-05-11T21:25:38.140Z,1.10
2019-05-11T21:28:08.286Z,1.17
2019-05-11T21:30:39.669Z,1.40
2019-05-11T21:33:04.483Z,1.57
2019-05-11T21:35:31.935Z,1.37
2019-05-11T21:37:59.366Z,1.20
2019-05-11T21:40:28.922Z,1.20
2019-05-11T21:42:57.967Z,1.20
2019-05-11T21:45:24.759Z,1.00
2019-05-11T21:47:51.805Z,1.60
2019-05-11T21:50:22.528Z,1.30
2019-05-11T21:52:54.298Z,1.20
2019-05-11T21:55:21.000Z,1.30
2019-05-11T21:57:51.716Z,1.10
2019-05-11T22:00:19.126Z,1.40
2019-05-11T22:02:48.643Z,1.00
2019-05-11T22:05:18.275Z,1.20
2019-05-11T22:07:48.951Z,1.43
2019-05-11T22:10:17.790Z,1.30
2019-05-11T22:12:45.220Z,1.20
2019-05-11T22:15:12.644Z,1.10
2019-05-11T22:17:39.975Z,1.40
2019-05-11T22:20:07.694Z,1.23
2019-05-11T22:22:39.095Z,1.33
2019-05-11T22:25:07.935Z,1.07
2019-05-11T22:27:35.080Z,1.57
2019-05-11T22:30:02.404Z,1.10
2019-05-11T22:32:33.031Z,1.20
2019-05-11T22:35:00.961Z,1.13
2019-05-11T22:37:28.666Z,1.23
2019-05-11T22:39:57.840Z,1.53
2019-05-11T22:42:27.866Z,1.27
2019-05-11T22:44:56.171Z,1.30
2019-05-11T22:47:23.283Z,1.07
2019-05-11T22:49:50.292Z,1.20
2019-05-11T22:52:17.980Z,1.30
2019-05-11T22:54:58.908Z,1.30
2019-05-11T22:57:25.289Z,1.20
2019-05-11T22:59:54.819Z,1.20
2019-05-11T23:02:22.873Z,1.03
2019-05-11T23:04:50.671Z,1.33
2019-05-11T23:07:19.865Z,1.10
2019-05-11T23:09:49.991Z,1.10
2019-05-11T23:12:18.358Z,1.20
2019-05-11T23:14:48.290Z,1.30
2019-05-11T23:17:15.303Z,1.30
2019-05-11T23:19:48.698Z,1.30
2019-05-11T23:22:18.317Z,1.23
2019-05-11T23:24:47.987Z,1.67
2019-05-11T23:27:15.450Z,1.50
2019-05-11T23:29:43.240Z,1.60
2019-05-11T23:32:11.208Z,1.30
2019-05-11T23:34:38.916Z,1.00
2019-05-11T23:37:08.572Z,1.60
2019-05-11T23:39:38.674Z,1.17
2019-05-11T23:42:07.591Z,1.37
2019-05-11T23:44:34.576Z,1.20
2019-05-11T23:47:01.899Z,1.37
2019-05-11T23:49:36.922Z,1.10
2019-05-11T23:52:13.716Z,1.47
2019-05-11T23:54:44.394Z,1.73
2019-05-11T23:57:12.088Z,1.50
2019-05-11T23:59:40.466Z,0.93
